Terminal Aerodrome Forecast
Issued by NWS

Home | Current Version | Previous Version | Text Only | Print | Product List | Glossary On
Versions: 1 2 3 4 5 6 7 8 9 10 11 12 13
000
FTUS46 KSEW 042300
TAFBLI
TAF
KBLI 042321Z 0500/0524 17012G16KT P6SM VCSH BKN050
     FM050300 19012KT P6SM -SHRA BKN035
     FM050700 16005KT P6SM -SHRA BKN035=

USA.gov is the U.S. government's official web portal to all federal, state and local government web resources and services.